Time;durP1;ratioP1;P1;durP2;ratioP2;P2;SDS_P1;SDS_P2;PMS_P1;PMS_P2;Temp;Humidity;BMP_temperature;BMP_pressure;BME280_temperature;BME280_humidity;BME280_pressure;Samples;Min_cycle;Max_cycle;Signal;HPM_P1;HPM_P2
2023/04/25 00:01:21;;;;;;;20.75;4.70;;;8.20;99.90;;;;;;4772271;30;20201;-77
2023/04/25 00:03:48;;;;;;;23.85;4.38;;;8.20;99.90;;;;;;4785158;29;20192;-77
2023/04/25 00:06:14;;;;;;;28.23;5.07;;;8.20;99.90;;;;;;4787258;30;20291;-77
2023/04/25 00:08:40;;;;;;;23.40;4.82;;;8.20;99.90;;;;;;4787756;30;20665;-78
2023/04/25 00:11:06;;;;;;;32.47;4.32;;;8.20;99.90;;;;;;4771775;30;20279;-78
2023/04/25 00:13:33;;;;;;;24.25;4.60;;;8.20;99.90;;;;;;4784974;29;20271;-78
2023/04/25 00:15:59;;;;;;;28.98;4.80;;;8.10;99.90;;;;;;4763065;30;20202;-82
2023/04/25 00:18:28;;;;;;;24.52;4.63;;;8.10;99.90;;;;;;4784780;30;20247;-78
2023/04/25 00:20:55;;;;;;;37.67;5.28;;;8.10;99.90;;;;;;4788205;30;20189;-77
2023/04/25 00:23:21;;;;;;;24.98;4.60;;;8.10;99.90;;;;;;4773956;29;20220;-79
2023/04/25 00:25:49;;;;;;;25.42;4.38;;;8.00;99.90;;;;;;4762484;30;20190;-77
2023/04/25 00:28:15;;;;;;;29.27;5.28;;;8.00;99.90;;;;;;4770186;30;20213;-78
2023/04/25 00:30:42;;;;;;;20.75;4.45;;;8.10;99.90;;;;;;4778917;30;20701;-77
2023/04/25 00:33:08;;;;;;;21.13;3.75;;;8.00;99.90;;;;;;4753047;30;20576;-77
2023/04/25 00:35:34;;;;;;;23.95;4.07;;;7.90;99.90;;;;;;4781979;30;20204;-77
2023/04/25 00:38:00;;;;;;;14.85;3.25;;;7.90;99.90;;;;;;4768723;30;20651;-77
2023/04/25 00:40:26;;;;;;;20.10;4.07;;;7.90;99.90;;;;;;4760009;29;20198;-77
2023/04/25 00:42:53;;;;;;;21.58;4.05;;;7.80;99.90;;;;;;4774505;29;20185;-77
2023/04/25 00:45:19;;;;;;;17.63;3.53;;;7.80;99.90;;;;;;4770023;30;20185;-77
2023/04/25 00:47:47;;;;;;;24.20;3.78;;;7.80;99.90;;;;;;4779477;30;20212;-77
2023/04/25 00:50:13;;;;;;;22.67;3.92;;;7.80;99.90;;;;;;4770386;29;20250;-78
2023/04/25 00:52:42;;;;;;;18.05;3.05;;;7.80;99.90;;;;;;4779196;29;20199;-79
2023/04/25 00:55:09;;;;;;;18.63;3.13;;;7.80;99.90;;;;;;4786503;30;20242;-78
2023/04/25 00:57:35;;;;;;;16.48;3.75;;;7.80;99.90;;;;;;4779011;29;20288;-78
2023/04/25 01:00:02;;;;;;;24.55;3.60;;;7.70;99.90;;;;;;4739098;30;20623;-78
2023/04/25 01:02:28;;;;;;;16.05;3.40;;;7.70;99.90;;;;;;4779386;29;20494;-80
2023/04/25 01:04:54;;;;;;;11.50;3.38;;;7.70;99.90;;;;;;4768713;30;20760;-78
2023/04/25 01:07:20;;;;;;;15.63;3.28;;;7.70;99.90;;;;;;4786267;30;20224;-78
2023/04/25 01:09:46;;;;;;;20.65;3.50;;;7.70;99.90;;;;;;4770883;29;20192;-77
2023/04/25 01:12:12;;;;;;;16.20;2.90;;;7.70;99.90;;;;;;4772495;30;20196;-78
2023/04/25 01:14:39;;;;;;;16.65;3.40;;;7.70;99.90;;;;;;4783898;29;20204;-79
2023/04/25 01:17:05;;;;;;;13.85;2.65;;;7.70;99.90;;;;;;4783128;29;20192;-78
2023/04/25 01:19:31;;;;;;;29.50;3.45;;;7.70;99.90;;;;;;4762643;29;20204;-78
2023/04/25 01:21:57;;;;;;;15.82;3.28;;;7.70;99.90;;;;;;4767846;30;20224;-79
2023/04/25 01:24:23;;;;;;;17.23;2.55;;;7.70;99.90;;;;;;4773870;30;20229;-78
2023/04/25 01:26:50;;;;;;;19.63;2.90;;;7.70;99.90;;;;;;4771427;30;20227;-77
2023/04/25 01:29:20;;;;;;;14.60;3.00;;;7.60;99.90;;;;;;4757193;30;20647;-77
2023/04/25 01:31:46;;;;;;;15.50;2.95;;;7.70;99.90;;;;;;4775025;30;20244;-77
2023/04/25 01:34:13;;;;;;;15.90;2.60;;;7.70;99.90;;;;;;4771978;30;20296;-79
2023/04/25 01:36:39;;;;;;;18.40;2.80;;;7.70;99.90;;;;;;4779918;30;20557;-77
2023/04/25 01:39:05;;;;;;;15.30;2.95;;;7.70;99.90;;;;;;4783131;29;20222;-77
2023/04/25 01:41:32;;;;;;;25.85;3.25;;;7.70;99.90;;;;;;4771447;30;20185;-80
2023/04/25 01:43:58;;;;;;;17.55;3.38;;;7.60;99.90;;;;;;4742083;30;20189;-78
2023/04/25 01:46:24;;;;;;;17.77;3.10;;;7.60;99.90;;;;;;4767437;30;20677;-77
2023/04/25 01:48:50;;;;;;;18.17;2.97;;;7.60;99.90;;;;;;4766308;30;20766;-77
2023/04/25 01:51:16;;;;;;;19.50;2.70;;;7.60;99.90;;;;;;4759633;30;20283;-76
2023/04/25 01:53:43;;;;;;;14.48;2.83;;;7.60;99.90;;;;;;4743855;30;20193;-77
2023/04/25 01:56:09;;;;;;;21.25;2.85;;;7.60;99.90;;;;;;4756745;30;20213;-77
2023/04/25 01:58:35;;;;;;;17.67;3.20;;;7.60;99.90;;;;;;4755730;30;20718;-77
2023/04/25 02:01:01;;;;;;;16.55;3.70;;;7.60;99.90;;;;;;4767192;30;20338;-76
2023/04/25 02:03:34;;;;;;;21.75;3.53;;;7.60;99.90;;;;;;4787769;30;20205;-77
2023/04/25 02:06:00;;;;;;;21.67;3.50;;;7.60;99.90;;;;;;4774286;30;20193;-80
2023/04/25 02:08:27;;;;;;;13.80;3.50;;;7.60;99.90;;;;;;4768122;29;20229;-77
2023/04/25 02:10:54;;;;;;;26.80;3.55;;;7.60;99.90;;;;;;4770767;30;20299;-77
2023/04/25 02:13:20;;;;;;;20.20;3.47;;;7.60;99.90;;;;;;4790010;30;20217;-77
2023/04/25 02:16:05;;;;;;;23.55;3.53;;;7.50;99.90;;;;;;4789901;30;20685;-77
2023/04/25 02:18:31;;;;;;;17.23;3.28;;;7.50;99.90;;;;;;4783375;29;20205;-77
2023/04/25 02:20:59;;;;;;;24.42;3.35;;;7.50;99.90;;;;;;4769253;30;20195;-77
2023/04/25 02:23:24;;;;;;;17.48;3.05;;;7.50;99.90;;;;;;4788822;29;20211;-77
2023/04/25 02:25:52;;;;;;;26.52;3.70;;;7.50;99.90;;;;;;4773747;30;20276;-77
2023/04/25 02:28:18;;;;;;;18.15;3.00;;;7.40;99.90;;;;;;4772585;30;20233;-77
2023/04/25 02:30:44;;;;;;;20.70;3.65;;;7.40;99.90;;;;;;4773522;30;20614;-76
2023/04/25 02:33:10;;;;;;;14.77;3.15;;;7.40;99.90;;;;;;4789047;30;20579;-77
2023/04/25 02:35:35;;;;;;;23.08;3.53;;;7.30;99.90;;;;;;4773006;30;20239;-76
2023/04/25 02:38:01;;;;;;;16.73;3.30;;;7.30;99.90;;;;;;4770280;29;20682;-78
2023/04/25 02:40:27;;;;;;;20.80;3.30;;;7.30;99.90;;;;;;4784002;29;20197;-77
2023/04/25 02:42:53;;;;;;;27.40;3.47;;;7.30;99.90;;;;;;4789214;30;20200;-78
2023/04/25 02:45:19;;;;;;;11.82;2.65;;;7.20;99.90;;;;;;4789261;30;20196;-78
2023/04/25 02:47:45;;;;;;;17.10;3.30;;;7.20;99.90;;;;;;4766379;30;20595;-78
2023/04/25 02:50:11;;;;;;;23.65;3.20;;;7.20;99.90;;;;;;4781654;29;20205;-77
2023/04/25 02:52:38;;;;;;;16.80;2.80;;;7.10;99.90;;;;;;4755028;30;20295;-76
2023/04/25 02:55:13;;;;;;;15.98;3.00;;;7.10;99.90;;;;;;4772800;30;20567;-81
2023/04/25 02:57:39;;;;;;;15.27;2.63;;;7.10;99.90;;;;;;4770692;30;20296;-79
2023/04/25 03:00:06;;;;;;;15.10;3.53;;;7.10;99.90;;;;;;4755189;30;20272;-78
2023/04/25 03:02:32;;;;;;;13.32;2.38;;;7.10;99.90;;;;;;4754454;30;20258;-78
2023/04/25 03:04:58;;;;;;;15.20;3.00;;;7.10;99.90;;;;;;4768048;30;20193;-78
2023/04/25 03:07:24;;;;;;;17.30;2.67;;;7.10;99.90;;;;;;4769609;30;20708;-85
2023/04/25 03:09:50;;;;;;;20.02;2.70;;;7.00;99.90;;;;;;4769807;30;20643;-78
2023/04/25 03:12:16;;;;;;;21.23;2.85;;;7.10;99.90;;;;;;4749111;30;20265;-78
2023/04/25 03:14:42;;;;;;;16.33;2.55;;;7.00;99.90;;;;;;4781663;30;20558;-78
2023/04/25 03:17:08;;;;;;;20.15;2.67;;;7.10;99.90;;;;;;4769851;30;20205;-76
2023/04/25 03:19:35;;;;;;;14.15;2.30;;;7.10;99.90;;;;;;4752163;30;20619;-81
2023/04/25 03:22:01;;;;;;;14.32;2.72;;;7.10;99.90;;;;;;4756779;30;20184;-76
2023/04/25 03:24:28;;;;;;;10.02;2.42;;;7.10;99.90;;;;;;4758287;30;20189;-76
2023/04/25 03:26:53;;;;;;;11.25;2.47;;;7.10;99.90;;;;;;4771408;30;20213;-76
2023/04/25 03:29:24;;;;;;;16.65;2.30;;;7.10;99.90;;;;;;4771101;30;20200;-76
2023/04/25 03:31:50;;;;;;;13.57;2.10;;;7.00;99.90;;;;;;4757858;30;20277;-76
2023/04/25 03:34:16;;;;;;;9.85;2.20;;;7.00;99.90;;;;;;4771986;30;20197;-77
2023/04/25 03:36:42;;;;;;;18.17;2.78;;;7.00;99.90;;;;;;4771340;30;20197;-76
2023/04/25 03:39:10;;;;;;;11.90;2.40;;;6.90;99.90;;;;;;4759442;30;20201;-76
2023/04/25 03:41:38;;;;;;;17.58;2.47;;;6.90;99.90;;;;;;4767771;30;20189;-77
2023/04/25 03:44:10;;;;;;;14.43;2.40;;;6.90;99.90;;;;;;4769570;30;20721;-76
2023/04/25 03:46:36;;;;;;;14.75;2.60;;;6.90;99.90;;;;;;4769542;30;20280;-77
2023/04/25 03:49:02;;;;;;;13.13;2.45;;;6.90;99.90;;;;;;4755511;29;20209;-76
2023/04/25 03:51:44;;;;;;;11.23;2.22;;;6.80;99.90;;;;;;4770025;30;20203;-76
2023/04/25 03:54:10;;;;;;;14.05;2.78;;;6.80;99.90;;;;;;4788656;30;20275;-76
2023/04/25 03:56:38;;;;;;;16.25;2.58;;;6.80;99.90;;;;;;4771616;30;20216;-78
2023/04/25 03:59:14;;;;;;;15.82;2.45;;;6.70;99.90;;;;;;4756246;29;20189;-78
2023/04/25 04:01:40;;;;;;;15.30;2.78;;;6.70;99.90;;;;;;4768656;30;20188;-77
2023/04/25 04:04:06;;;;;;;17.63;2.83;;;6.70;99.90;;;;;;4777147;29;20339;-77
2023/04/25 04:06:33;;;;;;;13.32;2.65;;;6.70;99.90;;;;;;4767283;30;20276;-78
2023/04/25 04:09:10;;;;;;;14.68;2.97;;;6.70;99.90;;;;;;4758006;30;20196;-78
2023/04/25 04:11:38;;;;;;;14.82;2.40;;;6.70;99.90;;;;;;4770769;30;20272;-77
2023/04/25 04:14:06;;;;;;;13.90;2.95;;;6.60;99.90;;;;;;4761660;30;20475;-78
2023/04/25 04:16:32;;;;;;;10.30;2.47;;;6.60;99.90;;;;;;4776854;29;20184;-80
2023/04/25 04:18:58;;;;;;;22.10;2.92;;;6.60;99.90;;;;;;4766857;30;20189;-79
2023/04/25 04:21:24;;;;;;;11.57;2.53;;;6.50;99.90;;;;;;4756940;30;20196;-78
2023/04/25 04:23:50;;;;;;;20.70;3.33;;;6.50;99.90;;;;;;4769479;29;20236;-82
2023/04/25 04:26:16;;;;;;;14.15;2.65;;;6.50;99.90;;;;;;4765614;30;20219;-80
2023/04/25 04:28:56;;;;;;;17.20;2.80;;;6.40;99.90;;;;;;4769542;30;20783;-78
2023/04/25 04:31:30;;;;;;;18.92;3.03;;;6.40;99.90;;;;;;4779439;30;20240;-79
2023/04/25 04:33:56;;;;;;;22.10;2.88;;;6.40;99.90;;;;;;4742557;30;20189;-79
2023/04/25 04:36:22;;;;;;;17.60;2.92;;;6.40;99.90;;;;;;4765880;29;20222;-85
2023/04/25 04:38:49;;;;;;;14.13;2.63;;;6.30;99.90;;;;;;4771484;30;20192;-78
2023/04/25 04:41:25;;;;;;;14.88;2.85;;;6.30;99.90;;;;;;4768865;30;20197;-78
2023/04/25 04:44:06;;;;;;;20.58;3.80;;;6.30;99.90;;;;;;4771163;30;20189;-78
2023/04/25 04:46:44;;;;;;;17.27;2.97;;;6.30;99.90;;;;;;4766626;29;20279;-78
2023/04/25 04:49:28;;;;;;;18.00;3.17;;;6.30;99.90;;;;;;4790373;30;20295;-80
2023/04/25 04:52:23;;;;;;;14.55;2.90;;;6.30;99.90;;;;;;4738125;30;20206;-79
2023/04/25 04:55:11;;;;;;;21.52;2.95;;;6.40;99.90;;;;;;4757020;29;20206;-82
2023/04/25 04:58:03;;;;;;;15.73;2.75;;;6.30;99.90;;;;;;4775910;29;20192;-81
2023/04/25 05:00:38;;;;;;;15.98;2.72;;;6.40;99.90;;;;;;4777820;29;20215;-80
2023/04/25 05:03:12;;;;;;;15.27;2.88;;;6.40;99.90;;;;;;4774136;30;20230;-78
2023/04/25 05:05:53;;;;;;;14.73;2.47;;;6.40;99.90;;;;;;4759323;29;20193;-78
2023/04/25 05:08:37;;;;;;;16.95;2.20;;;6.30;99.90;;;;;;4759339;30;20262;-78
2023/04/25 05:11:18;;;;;;;8.80;1.90;;;6.30;99.90;;;;;;4758585;30;20193;-78
2023/04/25 05:14:11;;;;;;;7.15;2.10;;;6.30;99.90;;;;;;4769696;30;20196;-79
2023/04/25 05:16:46;;;;;;;9.57;1.63;;;6.30;99.90;;;;;;4774120;29;20279;-79
2023/04/25 05:19:31;;;;;;;7.60;1.58;;;6.30;99.90;;;;;;4788438;29;20241;-79
2023/04/25 05:22:32;;;;;;;7.97;2.15;;;6.20;99.90;;;;;;4776974;30;20574;-78
2023/04/25 05:25:18;;;;;;;6.40;1.38;;;6.20;99.90;;;;;;4790016;30;20201;-76
2023/04/25 05:28:01;;;;;;;8.25;2.42;;;6.20;99.90;;;;;;4790672;30;20709;-78
2023/04/25 05:30:47;;;;;;;5.00;1.70;;;6.20;99.90;;;;;;4759284;29;20323;-77
2023/04/25 05:33:16;;;;;;;7.22;1.90;;;6.30;99.90;;;;;;4771568;30;20196;-78
2023/04/25 05:35:43;;;;;;;8.65;1.75;;;6.30;99.90;;;;;;4773994;30;20197;-81
2023/04/25 05:38:11;;;;;;;10.07;2.00;;;6.40;99.90;;;;;;4774270;30;20185;-77
2023/04/25 05:40:56;;;;;;;8.43;2.00;;;6.50;99.90;;;;;;4785280;29;20192;-78
2023/04/25 05:43:46;;;;;;;6.50;1.80;;;6.60;99.90;;;;;;4776902;30;20196;-78
2023/04/25 05:46:45;;;;;;;17.00;1.95;;;6.60;99.90;;;;;;4782542;29;20236;-78
2023/04/25 05:49:26;;;;;;;11.43;2.08;;;6.70;99.90;;;;;;4790202;30;20259;-78
2023/04/25 05:51:52;;;;;;;13.73;2.00;;;6.70;99.90;;;;;;4786720;29;20276;-78
2023/04/25 05:54:36;;;;;;;8.43;1.98;;;6.70;99.90;;;;;;4784117;29;20192;-78
2023/04/25 05:57:03;;;;;;;12.40;2.38;;;6.70;99.90;;;;;;4773111;30;20650;-79
2023/04/25 05:59:29;;;;;;;11.93;1.90;;;6.80;99.90;;;;;;4759476;30;20193;-78
2023/04/25 06:01:55;;;;;;;7.63;1.95;;;6.80;99.90;;;;;;4758325;29;20268;-77
2023/04/25 06:04:22;;;;;;;10.60;1.80;;;6.80;99.90;;;;;;4760922;29;20210;-77
2023/04/25 06:06:47;;;;;;;11.60;2.03;;;6.70;99.90;;;;;;4768259;30;20614;-77
2023/04/25 06:09:13;;;;;;;10.68;2.20;;;6.80;99.90;;;;;;4743537;30;20277;-78
2023/04/25 06:11:40;;;;;;;9.27;1.90;;;6.80;99.90;;;;;;4766373;30;20189;-77
2023/04/25 06:14:06;;;;;;;5.82;1.92;;;6.80;99.90;;;;;;4780281;30;20529;-78
2023/04/25 06:16:35;;;;;;;9.50;1.40;;;6.80;99.90;;;;;;4758511;30;20320;-78
2023/04/25 06:19:00;;;;;;;14.20;1.90;;;6.90;99.90;;;;;;4761134;30;21630;-79
2023/04/25 06:21:27;;;;;;;5.65;1.65;;;6.90;99.90;;;;;;4771821;30;20581;-78
2023/04/25 06:23:53;;;;;;;14.10;2.10;;;6.90;99.90;;;;;;4758733;30;20197;-77
2023/04/25 06:26:21;;;;;;;9.10;1.88;;;7.00;99.90;;;;;;4772842;29;20203;-77
2023/04/25 06:28:48;;;;;;;8.65;2.00;;;6.90;99.90;;;;;;4786369;29;20255;-77
2023/04/25 06:31:13;;;;;;;9.75;1.80;;;7.00;99.90;;;;;;4750390;30;20706;-77
2023/04/25 06:33:41;;;;;;;14.43;2.00;;;7.10;99.90;;;;;;4741984;29;20221;-77
2023/04/25 06:36:07;;;;;;;7.63;1.83;;;7.20;99.90;;;;;;4755658;30;20204;-76
2023/04/25 06:38:35;;;;;;;14.73;2.30;;;7.30;99.90;;;;;;4773653;30;20201;-77
2023/04/25 06:41:01;;;;;;;13.32;1.90;;;7.40;99.90;;;;;;4758233;30;20203;-76
2023/04/25 06:43:33;;;;;;;12.85;2.05;;;7.50;99.90;;;;;;4773247;30;20275;-77
2023/04/25 06:46:23;;;;;;;7.13;1.92;;;7.60;99.90;;;;;;4756643;29;20200;-77
2023/04/25 06:48:50;;;;;;;10.57;1.63;;;7.80;99.90;;;;;;4757823;30;20232;-77
2023/04/25 06:51:17;;;;;;;14.73;1.98;;;7.80;99.90;;;;;;4758602;30;20201;-77
2023/04/25 06:53:44;;;;;;;11.95;2.75;;;7.90;99.90;;;;;;4758511;30;20196;-77
2023/04/25 06:56:17;;;;;;;15.50;2.47;;;8.00;99.90;;;;;;4770815;29;20528;-77
2023/04/25 06:59:01;;;;;;;15.10;2.05;;;8.10;99.90;;;;;;4772613;30;20191;-77
2023/04/25 07:01:30;;;;;;;15.23;2.50;;;8.10;99.90;;;;;;4789040;30;20193;-77
2023/04/25 07:03:57;;;;;;;13.13;2.67;;;8.20;99.90;;;;;;4756278;29;20193;-82
2023/04/25 07:06:25;;;;;;;9.15;1.95;;;8.20;99.90;;;;;;4771608;30;20606;-80
2023/04/25 07:08:52;;;;;;;20.48;2.05;;;8.30;99.90;;;;;;4757870;30;20233;-77
2023/04/25 07:11:17;;;;;;;10.40;1.98;;;8.30;99.90;;;;;;4772223;30;20247;-78
2023/04/25 07:13:43;;;;;;;7.85;1.65;;;8.40;99.90;;;;;;4754827;30;20193;-78
2023/04/25 07:16:09;;;;;;;10.35;2.15;;;8.40;99.90;;;;;;4758074;30;20253;-77
2023/04/25 07:18:35;;;;;;;9.50;1.95;;;8.50;99.90;;;;;;4772564;29;20196;-84
2023/04/25 07:21:02;;;;;;;8.45;1.70;;;8.60;99.90;;;;;;4769945;30;20196;-80
2023/04/25 07:23:29;;;;;;;6.78;1.52;;;8.60;99.90;;;;;;4772414;30;20646;-79
2023/04/25 07:25:58;;;;;;;9.43;1.70;;;8.70;99.90;;;;;;4757783;30;20215;-79
2023/04/25 07:28:25;;;;;;;10.27;1.65;;;8.80;99.90;;;;;;4757861;30;20258;-79
2023/04/25 07:30:51;;;;;;;7.88;1.55;;;8.80;99.90;;;;;;4765952;29;20208;-80
2023/04/25 07:33:20;;;;;;;7.47;1.90;;;8.90;99.90;;;;;;4787693;30;20196;-78
2023/04/25 07:35:45;;;;;;;11.57;1.50;;;9.10;99.90;;;;;;4760623;30;20606;-80
2023/04/25 07:38:11;;;;;;;10.02;1.60;;;9.20;99.90;;;;;;4757972;30;20196;-80
2023/04/25 07:40:38;;;;;;;14.32;2.42;;;9.20;99.90;;;;;;4743264;30;20196;-78
2023/04/25 07:43:07;;;;;;;9.85;1.70;;;9.30;99.90;;;;;;4772496;30;20220;-77
2023/04/25 07:45:40;;;;;;;7.57;1.80;;;9.30;99.90;;;;;;4758867;29;20196;-78
2023/04/25 07:48:06;;;;;;;10.48;1.60;;;9.30;99.90;;;;;;4781463;29;20216;-80
2023/04/25 07:50:35;;;;;;;8.25;1.58;;;9.30;99.90;;;;;;4754557;29;20189;-79
2023/04/25 07:53:01;;;;;;;12.73;1.65;;;9.30;99.90;;;;;;4772305;30;20238;-78
2023/04/25 07:55:33;;;;;;;8.52;1.60;;;9.20;99.90;;;;;;4753179;30;20204;-78
2023/04/25 07:58:09;;;;;;;7.95;1.45;;;9.20;99.90;;;;;;4778302;29;20274;-77
2023/04/25 08:00:37;;;;;;;12.57;1.65;;;9.30;99.90;;;;;;4765163;30;20216;-78
2023/04/25 08:03:22;;;;;;;10.10;1.75;;;9.30;99.90;;;;;;4786189;30;20226;-78
2023/04/25 08:05:48;;;;;;;12.63;1.60;;;9.60;99.90;;;;;;4753350;30;20194;-78
2023/04/25 08:08:14;;;;;;;6.47;1.20;;;9.80;99.90;;;;;;4753108;29;20282;-79
2023/04/25 08:10:41;;;;;;;4.50;1.35;;;10.00;99.90;;;;;;4750251;30;20193;-78
2023/04/25 08:13:08;;;;;;;8.85;1.40;;;10.10;99.90;;;;;;4765993;30;20572;-78
2023/04/25 08:15:34;;;;;;;6.22;1.35;;;10.00;99.90;;;;;;4756098;30;20269;-78
2023/04/25 08:18:00;;;;;;;6.28;1.33;;;9.80;99.90;;;;;;4771818;30;20192;-78
2023/04/25 08:20:26;;;;;;;5.70;1.40;;;9.50;99.90;;;;;;4748417;29;20565;-79
2023/04/25 08:22:54;;;;;;;6.57;1.20;;;9.20;99.90;;;;;;4780261;29;20194;-78
2023/04/25 08:25:40;;;;;;;3.38;1.40;;;9.00;99.90;;;;;;4749388;30;20209;-78
2023/04/25 08:28:07;;;;;;;4.90;1.05;;;8.90;99.90;;;;;;4753710;30;20221;-78
2023/04/25 08:30:33;;;;;;;5.28;1.05;;;8.80;99.90;;;;;;4755577;30;20196;-78
2023/04/25 08:32:59;;;;;;;4.15;1.13;;;8.60;99.90;;;;;;4753917;30;20237;-79
2023/04/25 08:35:50;;;;;;;5.90;1.45;;;8.60;99.90;;;;;;4775751;29;20194;-81
2023/04/25 08:38:17;;;;;;;4.55;1.10;;;8.50;99.90;;;;;;4748154;29;20205;-80
2023/04/25 08:40:44;;;;;;;3.35;1.10;;;8.40;99.90;;;;;;4777750;29;20201;-77
2023/04/25 08:43:15;;;;;;;5.43;1.00;;;8.50;99.90;;;;;;4778002;29;20193;-79
2023/04/25 08:45:42;;;;;;;7.60;1.58;;;8.50;99.90;;;;;;4767077;30;20197;-79
2023/04/25 08:48:12;;;;;;;3.13;1.15;;;8.50;99.90;;;;;;4771712;30;20249;-77
2023/04/25 08:50:51;;;;;;;7.88;1.55;;;8.60;99.90;;;;;;4752294;30;20199;-78
2023/04/25 08:53:25;;;;;;;8.63;1.52;;;8.80;99.90;;;;;;4748018;30;20188;-78
2023/04/25 08:55:52;;;;;;;8.18;1.38;;;8.90;99.90;;;;;;4761361;30;20185;-78
2023/04/25 08:58:19;;;;;;;9.50;1.80;;;9.20;99.90;;;;;;4772875;30;20205;-79
2023/04/25 09:00:46;;;;;;;5.88;1.52;;;9.40;99.90;;;;;;4777937;30;20190;-78
2023/04/25 09:03:13;;;;;;;10.27;1.35;;;9.70;99.90;;;;;;4756087;29;20554;-77
2023/04/25 09:05:40;;;;;;;5.57;1.60;;;9.90;99.90;;;;;;4760277;29;20185;-78
2023/04/25 09:08:07;;;;;;;7.53;1.67;;;10.30;99.90;;;;;;4758540;30;20301;-77
2023/04/25 09:10:33;;;;;;;7.53;1.77;;;10.60;99.90;;;;;;4755728;30;20195;-77
2023/04/25 09:13:03;;;;;;;7.07;1.45;;;10.80;99.90;;;;;;4751838;30;20561;-78
2023/04/25 09:15:31;;;;;;;7.47;1.80;;;10.90;99.90;;;;;;4765697;30;20190;-77
2023/04/25 09:18:10;;;;;;;6.55;1.60;;;11.00;99.90;;;;;;4768853;30;20330;-78
2023/04/25 09:20:45;;;;;;;9.57;2.00;;;11.00;99.90;;;;;;4763803;30;20771;-79
2023/04/25 09:23:11;;;;;;;6.22;1.65;;;11.10;99.90;;;;;;4783379;29;20184;-79
2023/04/25 09:25:42;;;;;;;14.63;2.15;;;11.10;99.90;;;;;;4756352;30;20247;-78
2023/04/25 09:28:09;;;;;;;11.63;2.20;;;11.10;99.90;;;;;;4770332;30;20226;-79
2023/04/25 09:30:36;;;;;;;7.22;1.70;;;11.20;99.90;;;;;;4750625;29;20680;-81
2023/04/25 09:33:12;;;;;;;12.52;1.95;;;11.20;99.90;;;;;;4755817;30;20221;-79
2023/04/25 09:35:45;;;;;;;9.77;1.95;;;11.20;99.90;;;;;;4741502;30;20201;-79
2023/04/25 09:38:21;;;;;;;15.27;2.40;;;11.10;99.90;;;;;;4743477;30;20189;-79
2023/04/25 09:40:54;;;;;;;10.80;1.98;;;10.90;99.90;;;;;;4747891;30;20232;-80
2023/04/25 09:43:32;;;;;;;9.50;2.08;;;10.90;99.90;;;;;;4729768;30;20245;-79
2023/04/25 09:46:00;;;;;;;13.32;1.90;;;10.90;99.90;;;;;;4738335;30;20585;-79
2023/04/25 09:48:28;;;;;;;12.35;1.80;;;10.90;99.90;;;;;;4738785;30;20225;-79
2023/04/25 09:51:06;;;;;;;8.98;1.98;;;11.00;99.90;;;;;;4752779;30;20193;-78
2023/04/25 09:53:35;;;;;;;10.73;2.10;;;11.20;99.90;;;;;;4756350;30;20650;-78
2023/04/25 09:56:13;;;;;;;9.40;1.90;;;11.40;99.90;;;;;;4754309;30;20711;-78
2023/04/25 09:58:41;;;;;;;10.65;2.13;;;11.60;99.90;;;;;;4741520;30;20209;-80
2023/04/25 10:01:11;;;;;;;13.63;1.98;;;11.70;99.90;;;;;;4739762;30;20181;-79
2023/04/25 10:03:50;;;;;;;13.70;1.85;;;11.80;99.90;;;;;;4732742;30;20189;-80
2023/04/25 10:06:38;;;;;;;9.32;2.08;;;12.00;99.90;;;;;;4756588;30;20190;-79
2023/04/25 10:09:07;;;;;;;11.18;2.00;;;12.10;99.90;;;;;;4739603;30;20986;-81
2023/04/25 10:11:35;;;;;;;12.75;2.17;;;12.20;99.90;;;;;;4751564;30;20194;-79
2023/04/25 10:14:01;;;;;;;8.32;2.05;;;12.20;99.90;;;;;;4767095;30;20685;-79
2023/04/25 10:16:28;;;;;;;7.75;1.70;;;12.30;99.90;;;;;;4726864;30;20284;-80
2023/04/25 10:18:55;;;;;;;7.47;1.40;;;12.20;99.90;;;;;;4754264;30;20201;-79
2023/04/25 10:21:21;;;;;;;6.45;1.30;;;12.00;99.90;;;;;;4738179;30;20202;-78
2023/04/25 10:23:49;;;;;;;9.88;1.70;;;11.70;99.90;;;;;;4754930;30;20251;-78
2023/04/25 10:26:16;;;;;;;15.95;2.42;;;11.40;99.90;;;;;;4751789;30;20225;-78
2023/04/25 10:28:58;;;;;;;6.13;1.80;;;11.20;99.90;;;;;;4753589;30;20250;-78
2023/04/25 10:31:24;;;;;;;10.00;2.15;;;11.10;99.90;;;;;;4742802;29;20760;-79
2023/04/25 10:33:50;;;;;;;8.50;2.00;;;11.10;99.90;;;;;;4753999;30;20280;-79
2023/04/25 10:36:23;;;;;;;9.77;2.20;;;11.10;99.90;;;;;;4788591;30;20205;-80
2023/04/25 10:38:50;;;;;;;8.95;2.03;;;11.30;99.90;;;;;;4780569;30;20323;-80
2023/04/25 10:41:19;;;;;;;9.00;2.28;;;11.40;99.90;;;;;;4788293;30;20571;-79
2023/04/25 10:43:49;;;;;;;9.60;1.65;;;11.70;99.90;;;;;;4785293;29;20193;-80
2023/04/25 10:46:18;;;;;;;11.75;1.90;;;11.80;99.90;;;;;;4746997;30;20201;-80
2023/04/25 10:48:47;;;;;;;7.93;1.70;;;11.90;99.90;;;;;;4780396;30;20272;-80
2023/04/25 10:51:16;;;;;;;7.45;1.52;;;11.80;99.90;;;;;;4773024;30;20197;-80
2023/04/25 10:53:56;;;;;;;6.07;1.58;;;11.60;99.90;;;;;;4770966;29;20326;-80
2023/04/25 10:56:25;;;;;;;9.10;2.40;;;11.40;99.90;;;;;;4757337;30;20192;-80
2023/04/25 10:58:50;;;;;;;6.68;1.67;;;11.10;99.90;;;;;;4754888;30;20208;-80
2023/04/25 11:01:21;;;;;;;8.45;2.20;;;10.90;99.90;;;;;;4755786;29;20185;-83
2023/04/25 11:03:50;;;;;;;8.07;1.77;;;10.90;99.90;;;;;;4776583;29;20189;-81
2023/04/25 11:06:57;;;;;;;9.07;2.00;;;10.90;99.90;;;;;;4757094;30;20241;-79
2023/04/25 11:09:24;;;;;;;9.30;1.85;;;11.00;99.90;;;;;;4771776;30;20257;-80
2023/04/25 11:11:58;;;;;;;11.00;2.13;;;11.20;99.90;;;;;;4779824;29;20196;-80
2023/04/25 11:14:24;;;;;;;7.30;1.70;;;11.40;99.90;;;;;;4786279;30;20559;-80
2023/04/25 11:16:57;;;;;;;7.45;1.70;;;11.60;99.90;;;;;;4788791;30;20201;-79
2023/04/25 11:19:24;;;;;;;36.03;1.95;;;11.80;99.90;;;;;;4754258;30;20193;-79
2023/04/25 11:21:54;;;;;;;7.20;1.80;;;12.00;99.90;;;;;;4740360;30;20189;-80
2023/04/25 11:24:25;;;;;;;8.18;1.55;;;12.20;99.90;;;;;;4758328;30;20572;-79
2023/04/25 11:26:51;;;;;;;10.27;2.00;;;12.20;99.90;;;;;;4776279;29;20188;-80
2023/04/25 11:29:17;;;;;;;9.55;1.80;;;12.30;99.90;;;;;;4772929;30;20197;-79
2023/04/25 11:31:46;;;;;;;13.52;2.10;;;12.40;99.80;;;;;;4742042;30;20425;-79
2023/04/25 11:34:12;;;;;;;9.52;1.77;;;12.50;99.10;;;;;;4756524;30;20307;-79
2023/04/25 11:36:39;;;;;;;7.57;1.73;;;12.70;99.10;;;;;;4768969;30;20197;-79
2023/04/25 11:39:05;;;;;;;6.18;1.60;;;12.80;98.50;;;;;;4782761;29;20215;-79
2023/04/25 11:41:31;;;;;;;8.45;1.90;;;12.90;97.50;;;;;;4765854;30;20217;-79
2023/04/25 11:43:57;;;;;;;6.05;1.83;;;12.90;97.40;;;;;;4763302;30;20227;-79
2023/04/25 11:46:23;;;;;;;12.07;1.88;;;12.90;96.90;;;;;;4757617;30;20730;-77
2023/04/25 11:48:50;;;;;;;9.10;1.67;;;13.00;96.90;;;;;;4770691;29;20216;-81
2023/04/25 11:51:16;;;;;;;10.60;1.85;;;12.90;96.60;;;;;;4778066;29;20197;-79
2023/04/25 11:53:44;;;;;;;5.38;1.80;;;13.00;96.80;;;;;;4772267;30;20279;-79
2023/04/25 11:56:13;;;;;;;5.63;1.50;;;13.00;96.20;;;;;;4771867;29;20193;-80
2023/04/25 11:59:00;;;;;;;8.73;1.73;;;13.00;95.80;;;;;;4789346;29;20197;-79
2023/04/25 12:01:28;;;;;;;3.88;1.40;;;13.00;95.30;;;;;;4755191;30;20189;-82
2023/04/25 12:03:54;;;;;;;5.10;1.50;;;13.00;94.90;;;;;;4770085;30;20200;-80
2023/04/25 12:06:19;;;;;;;4.93;1.30;;;13.00;94.50;;;;;;4771660;30;20203;-79
2023/04/25 12:09:02;;;;;;;6.75;1.60;;;13.00;94.30;;;;;;4755410;30;20258;-82
2023/04/25 12:11:32;;;;;;;10.77;1.90;;;13.00;94.20;;;;;;4783434;29;20188;-79
2023/04/25 12:14:07;;;;;;;10.85;1.83;;;13.10;94.10;;;;;;4782966;29;20218;-79
2023/04/25 12:16:46;;;;;;;10.60;1.63;;;13.10;94.10;;;;;;4760441;29;20195;-79
2023/04/25 12:19:17;;;;;;;8.10;1.65;;;13.10;93.70;;;;;;4769992;30;20228;-79
2023/04/25 12:21:44;;;;;;;11.90;1.77;;;13.00;93.80;;;;;;4787811;30;20193;-79
2023/04/25 12:24:17;;;;;;;8.63;1.60;;;13.00;93.50;;;;;;4765860;30;20196;-80
2023/04/25 12:27:04;;;;;;;9.73;1.50;;;13.00;93.30;;;;;;4781282;29;20196;-79
2023/04/25 12:29:34;;;;;;;5.65;1.38;;;12.90;92.70;;;;;;4758319;30;20181;-79
2023/04/25 12:32:03;;;;;;;7.80;1.60;;;12.90;92.40;;;;;;4787605;29;20305;-80
2023/04/25 12:34:31;;;;;;;8.63;1.75;;;12.90;92.50;;;;;;4756077;30;20790;-81
2023/04/25 12:36:57;;;;;;;11.02;2.00;;;12.90;92.60;;;;;;4763383;30;20197;-81
2023/04/25 12:39:24;;;;;;;7.78;2.58;;;12.90;92.90;;;;;;4751315;29;20196;-81
2023/04/25 12:41:52;;;;;;;5.38;1.45;;;12.90;93.20;;;;;;4772899;29;20662;-81
2023/04/25 12:44:17;;;;;;;9.68;2.00;;;12.90;93.40;;;;;;4783441;30;20716;-81
2023/04/25 12:46:43;;;;;;;9.70;1.92;;;12.90;93.40;;;;;;4771541;30;20280;-81
2023/04/25 12:49:09;;;;;;;9.10;2.10;;;12.90;93.00;;;;;;4770411;30;20646;-81
2023/04/25 12:51:35;;;;;;;10.45;1.88;;;12.90;93.30;;;;;;4781732;29;20217;-81
2023/04/25 12:54:03;;;;;;;10.80;1.60;;;12.90;93.20;;;;;;4764342;30;20193;-82
2023/04/25 12:56:29;;;;;;;6.75;1.40;;;12.90;92.40;;;;;;4772969;30;20631;-81
2023/04/25 12:58:55;;;;;;;6.90;1.60;;;12.90;92.40;;;;;;4756112;30;20197;-80
2023/04/25 13:01:21;;;;;;;7.15;1.90;;;12.80;91.80;;;;;;4771538;30;20185;-80